Time;durP1;ratioP1;P1;durP2;ratioP2;P2;SDS_P1;SDS_P2;PMS_P1;PMS_P2;Temp;Humidity;BMP_temperature;BMP_pressure;BME280_temperature;BME280_humidity;BME280_pressure;Samples;Min_cycle;Max_cycle;Signal;HPM_P1;HPM_P2
2021/12/29 00:01:10;;;;;;;35.00;16.33;;;;;;;5.57;100.00;94070.59;10359949;28;20033;-74
2021/12/29 00:06:10;;;;;;;33.55;14.23;;;;;;;5.80;100.00;94081.94;10363761;28;20083;-71
2021/12/29 00:11:11;;;;;;;31.80;14.80;;;;;;;6.02;100.00;94089.00;10384790;28;20466;-71
2021/12/29 00:16:11;;;;;;;33.15;13.68;;;;;;;6.17;100.00;94081.06;10389918;28;20017;-75
2021/12/29 00:21:14;;;;;;;27.92;13.70;;;;;;;6.24;100.00;94064.81;10389994;28;20018;-71
2021/12/29 00:26:14;;;;;;;30.85;12.85;;;;;;;6.31;100.00;94060.81;10390247;28;20542;-73
2021/12/29 00:31:15;;;;;;;25.05;12.38;;;;;;;6.32;100.00;94058.94;10389929;28;20447;-74
2021/12/29 00:36:15;;;;;;;28.42;13.15;;;;;;;6.30;100.00;94053.88;10389918;28;20059;-72
2021/12/29 00:41:17;;;;;;;34.28;12.82;;;;;;;6.32;100.00;94048.25;10389015;28;20112;-71
2021/12/29 00:46:18;;;;;;;34.70;15.15;;;;;;;6.35;100.00;94046.94;10389367;28;20107;-71
2021/12/29 00:51:19;;;;;;;29.17;14.20;;;;;;;6.49;100.00;94050.72;10389056;28;20033;-74
2021/12/29 00:56:20;;;;;;;37.28;14.55;;;;;;;6.61;100.00;94053.94;10388000;28;20029;-78
2021/12/29 01:01:20;;;;;;;31.27;14.43;;;;;;;6.69;100.00;94052.63;10388996;28;20021;-71
2021/12/29 01:06:21;;;;;;;26.48;13.05;;;;;;;6.77;100.00;94052.09;10356147;28;20025;-75
2021/12/29 01:11:22;;;;;;;34.40;12.70;;;;;;;6.76;100.00;94041.69;10388319;28;20072;-74
2021/12/29 01:16:38;;;;;;;28.08;13.13;;;;;;;6.75;100.00;94035.53;10371508;28;20025;-75
2021/12/29 01:21:42;;;;;;;26.02;12.20;;;;;;;6.73;100.00;94040.34;10387778;28;20030;-76
2021/12/29 01:26:44;;;;;;;33.75;14.65;;;;;;;6.77;100.00;94021.94;10406136;28;20049;-72
2021/12/29 01:31:45;;;;;;;32.10;14.70;;;;;;;6.80;100.00;94019.50;10387910;28;20057;-77
2021/12/29 01:36:46;;;;;;;34.13;14.82;;;;;;;6.86;100.00;94001.59;10387400;28;20407;-72
2021/12/29 01:41:50;;;;;;;28.98;13.43;;;;;;;6.72;100.00;94012.03;10387694;28;20029;-76
2021/12/29 01:46:53;;;;;;;28.02;12.73;;;;;;;6.70;100.00;94002.66;10407236;28;20058;-75
2021/12/29 01:52:10;;;;;;;27.98;13.20;;;;;;;6.69;100.00;94011.78;10385085;28;20033;-72
2021/12/29 01:57:11;;;;;;;34.83;13.98;;;;;;;6.70;100.00;93998.16;10387016;28;20032;-76
2021/12/29 02:02:16;;;;;;;31.25;13.68;;;;;;;6.64;100.00;93989.34;10370327;28;20122;-69
2021/12/29 02:07:17;;;;;;;33.85;13.60;;;;;;;6.44;100.00;93983.97;10386005;28;20112;-70
2021/12/29 02:12:18;;;;;;;25.08;12.75;;;;;;;6.48;100.00;93974.38;10386181;28;20037;-73
2021/12/29 02:17:18;;;;;;;30.33;13.10;;;;;;;6.30;100.00;93968.47;10386130;28;20775;-75
2021/12/29 02:27:26;;;;;;;29.33;12.65;;;;;;;6.32;100.00;93942.34;10400412;28;20087;-68
2021/12/29 02:32:27;;;;;;;34.00;14.00;;;;;;;6.31;100.00;93931.94;10385176;28;20033;-69
2021/12/29 02:37:28;;;;;;;31.25;14.48;;;;;;;6.36;100.00;93939.13;10385214;28;20495;-71
2021/12/29 02:42:31;;;;;;;27.15;12.95;;;;;;;6.44;100.00;93930.59;10402867;28;20060;-74
2021/12/29 02:47:31;;;;;;;30.80;13.35;;;;;;;6.44;100.00;93923.38;10401430;28;20044;-69
2021/12/29 02:52:32;;;;;;;24.88;13.07;;;;;;;6.45;100.00;93929.53;10384934;28;20034;-72
2021/12/29 02:57:32;;;;;;;35.35;14.10;;;;;;;6.49;100.00;93926.06;10385060;28;20537;-74
2021/12/29 03:02:33;;;;;;;27.50;13.57;;;;;;;6.50;100.00;93935.69;10359767;28;20022;-70
2021/12/29 03:07:33;;;;;;;32.83;13.50;;;;;;;6.57;100.00;93924.72;10361439;28;20065;-72
2021/12/29 03:12:34;;;;;;;31.63;14.65;;;;;;;6.59;100.00;93914.56;10359678;28;20044;-73
2021/12/29 03:17:34;;;;;;;32.45;14.23;;;;;;;6.49;100.00;93922.59;10343574;28;20479;-75
2021/12/29 03:22:35;;;;;;;33.65;14.70;;;;;;;6.53;100.00;93917.50;10343230;28;20022;-73
2021/12/29 03:27:35;;;;;;;34.33;14.13;;;;;;;6.55;100.00;93918.06;10342651;28;20112;-69
2021/12/29 03:32:51;;;;;;;28.02;12.52;;;;;;;6.47;100.00;93911.38;10342657;28;20028;-72
2021/12/29 03:37:52;;;;;;;34.60;14.52;;;;;;;6.46;100.00;93901.75;10342794;28;20092;-74
2021/12/29 03:42:53;;;;;;;34.58;14.25;;;;;;;6.43;100.00;93907.63;10359005;28;20108;-69
2021/12/29 03:47:53;;;;;;;37.40;16.63;;;;;;;5.96;100.00;93912.13;10324903;28;20435;-69
2021/12/29 03:52:54;;;;;;;52.00;23.50;;;;;;;5.38;100.00;93910.34;10361355;28;20034;-76
2021/12/29 03:57:54;;;;;;;54.55;26.13;;;;;;;5.10;100.00;93914.22;10342663;28;20032;-69
2021/12/29 04:02:55;;;;;;;54.20;26.67;;;;;;;5.06;100.00;93908.59;10358687;28;20034;-73
2021/12/29 04:07:56;;;;;;;65.97;28.00;;;;;;;5.23;100.00;93902.28;10358128;28;20073;-71
2021/12/29 04:12:57;;;;;;;63.38;25.80;;;;;;;5.28;100.00;93902.31;10359608;28;20511;-75
2021/12/29 04:17:59;;;;;;;59.13;26.02;;;;;;;5.37;100.00;93895.44;10358460;28;20034;-70
2021/12/29 04:23:01;;;;;;;64.35;26.27;;;;;;;5.44;100.00;93893.34;10341943;28;20574;-69
2021/12/29 04:28:03;;;;;;;54.03;25.80;;;;;;;5.49;100.00;93900.53;10341961;28;20030;-69
2021/12/29 04:33:04;;;;;;;59.97;26.13;;;;;;;5.47;100.00;93887.47;10358859;28;20038;-69
2021/12/29 04:38:05;;;;;;;50.53;24.20;;;;;;;5.38;100.00;93893.56;10357755;28;20029;-69
2021/12/29 04:43:05;;;;;;;65.28;30.45;;;;;;;5.42;100.00;93894.66;10356739;28;20033;-72
2021/12/29 04:48:12;;;;;;;58.72;28.38;;;;;;;4.96;100.00;93912.00;10358837;28;20104;-70
2021/12/29 04:53:12;;;;;;;63.55;30.02;;;;;;;4.58;100.00;93919.25;10359184;28;20053;-74
2021/12/29 04:58:14;;;;;;;62.38;29.83;;;;;;;4.45;100.00;93928.47;10360728;28;20058;-70
2021/12/29 05:03:16;;;;;;;60.67;27.02;;;;;;;4.45;100.00;93923.16;10367039;28;20509;-76
2021/12/29 05:08:26;;;;;;;59.58;26.42;;;;;;;4.43;100.00;93929.78;10371735;28;20113;-76
2021/12/29 05:13:29;;;;;;;59.72;27.77;;;;;;;4.47;100.00;93935.41;10365264;28;20026;-77
2021/12/29 05:18:34;;;;;;;59.17;28.40;;;;;;;4.38;100.00;93925.22;10364479;28;20030;-74
2021/12/29 05:23:36;;;;;;;62.20;28.17;;;;;;;4.44;100.00;93931.38;10347085;28;20026;-75
2021/12/29 05:28:36;;;;;;;61.60;27.85;;;;;;;4.37;100.00;93938.78;10347044;28;20018;-81
2021/12/29 05:33:37;;;;;;;57.30;27.50;;;;;;;4.40;100.00;93939.06;10372356;28;20037;-79
2021/12/29 05:38:37;;;;;;;60.08;30.10;;;;;;;4.32;100.00;93936.06;10329453;28;20088;-76
2021/12/29 05:43:38;;;;;;;64.53;28.77;;;;;;;4.68;100.00;93944.34;10331161;28;20201;-72
2021/12/29 05:48:38;;;;;;;66.97;26.75;;;;;;;4.68;100.00;93941.69;10382901;28;20506;-74
2021/12/29 05:53:41;;;;;;;72.20;28.42;;;;;;;4.81;100.00;93948.41;10362186;28;20037;-76
2021/12/29 05:58:42;;;;;;;62.55;27.02;;;;;;;5.07;100.00;93944.03;10346207;28;20285;-73
2021/12/29 06:03:43;;;;;;;53.92;27.13;;;;;;;5.12;100.00;93944.06;10351308;28;20040;-74
2021/12/29 06:08:44;;;;;;;57.58;24.40;;;;;;;5.16;100.00;93937.16;10366674;28;20018;-73
2021/12/29 06:13:44;;;;;;;55.20;24.75;;;;;;;5.27;100.00;93935.34;10363568;28;20022;-72
2021/12/29 06:18:45;;;;;;;56.33;25.30;;;;;;;5.35;100.00;93939.38;10344973;28;20026;-77
2021/12/29 06:23:47;;;;;;;59.70;25.80;;;;;;;5.52;100.00;93931.19;10361133;28;20025;-72
2021/12/29 06:28:48;;;;;;;63.35;25.85;;;;;;;5.36;100.00;93948.97;10345328;28;20053;-73
2021/12/29 06:33:49;;;;;;;57.35;27.23;;;;;;;5.47;100.00;93953.31;10367172;28;20408;-75
2021/12/29 06:38:49;;;;;;;67.90;26.55;;;;;;;5.70;100.00;93954.72;10385175;28;20028;-74
2021/12/29 06:43:50;;;;;;;59.10;24.52;;;;;;;5.81;100.00;93956.34;10385303;28;20388;-73
2021/12/29 06:48:50;;;;;;;66.13;26.20;;;;;;;5.95;100.00;93951.31;10384621;28;20043;-72
2021/12/29 06:53:51;;;;;;;58.58;24.75;;;;;;;6.04;100.00;93948.16;10381660;28;20554;-72
2021/12/29 06:58:52;;;;;;;51.35;23.30;;;;;;;6.10;100.00;93955.91;10385228;28;20110;-76
2021/12/29 07:03:52;;;;;;;49.10;22.00;;;;;;;6.18;100.00;93954.56;10401818;28;20029;-72
2021/12/29 07:08:53;;;;;;;56.95;20.73;;;;;;;6.22;100.00;93961.00;10383764;28;20030;-76
2021/12/29 07:13:54;;;;;;;47.08;22.38;;;;;;;6.23;100.00;93959.13;10384226;28;20049;-77
2021/12/29 07:18:54;;;;;;;53.38;21.73;;;;;;;6.32;100.00;93965.53;10400662;28;20108;-74
2021/12/29 07:23:55;;;;;;;41.45;19.88;;;;;;;6.46;100.00;93973.81;10383714;28;20029;-73
2021/12/29 07:28:56;;;;;;;53.80;21.23;;;;;;;6.38;100.00;93975.16;10383672;28;20666;-74
2021/12/29 07:33:57;;;;;;;64.78;28.40;;;;;;;5.98;100.00;93980.16;10401976;28;20132;-78
2021/12/29 07:38:57;;;;;;;68.78;30.50;;;;;;;5.72;100.00;93984.59;10383295;28;20527;-75
2021/12/29 07:43:59;;;;;;;67.55;31.05;;;;;;;5.44;100.00;93991.09;10383260;28;20132;-72
2021/12/29 07:49:01;;;;;;;76.30;32.60;;;;;;;5.31;100.00;93993.16;10383660;28;20041;-74
2021/12/29 07:54:03;;;;;;;79.88;31.00;;;;;;;5.23;100.00;93995.53;10401537;28;20025;-73
2021/12/29 07:59:03;;;;;;;75.80;30.90;;;;;;;5.35;100.00;93998.00;10401240;28;20041;-73
2021/12/29 08:04:04;;;;;;;73.10;33.25;;;;;;;5.25;100.00;94007.53;10350490;28;20514;-70
2021/12/29 08:09:07;;;;;;;74.38;31.35;;;;;;;5.06;100.00;94009.00;10342429;28;20674;-79
2021/12/29 08:14:08;;;;;;;79.60;33.83;;;;;;;5.11;100.00;94012.50;10358850;28;20029;-77
2021/12/29 08:19:09;;;;;;;81.88;35.45;;;;;;;5.41;100.00;94005.75;10341567;28;20057;-72
2021/12/29 08:24:10;;;;;;;86.93;35.78;;;;;;;5.69;100.00;94005.63;10358074;28;20033;-75
2021/12/29 08:29:10;;;;;;;93.18;36.60;;;;;;;5.76;100.00;94008.84;10342031;28;20472;-73
2021/12/29 08:34:11;;;;;;;84.15;35.58;;;;;;;5.65;100.00;94005.31;10363086;28;20470;-75
2021/12/29 08:39:11;;;;;;;71.28;32.42;;;;;;;5.87;100.00;94002.50;10349347;28;20108;-75
2021/12/29 08:44:12;;;;;;;73.53;31.88;;;;;;;5.92;100.00;93999.06;10365287;28;20080;-78
2021/12/29 08:49:14;;;;;;;71.82;28.92;;;;;;;6.07;100.00;94000.97;10367246;28;20117;-73
2021/12/29 08:54:14;;;;;;;78.13;30.52;;;;;;;6.11;100.00;93996.72;10364740;28;20120;-73
2021/12/29 08:59:15;;;;;;;72.97;29.02;;;;;;;6.24;100.00;93998.91;10348869;28;20391;-76
2021/12/29 09:04:16;;;;;;;65.30;28.33;;;;;;;6.26;100.00;93998.63;10348140;28;20037;-72
2021/12/29 09:09:16;;;;;;;62.40;26.50;;;;;;;6.20;100.00;93991.69;10347866;28;20053;-74
2021/12/29 09:14:16;;;;;;;71.28;27.65;;;;;;;6.35;100.00;93989.03;10365389;28;20040;-74
2021/12/29 09:19:17;;;;;;;61.55;26.05;;;;;;;6.29;100.00;93977.56;10364829;28;20583;-73
2021/12/29 09:24:18;;;;;;;49.50;23.42;;;;;;;6.12;100.00;93974.31;10364843;28;20554;-76
2021/12/29 09:29:18;;;;;;;48.20;22.98;;;;;;;6.11;100.00;93970.03;10363493;28;20427;-73
2021/12/29 09:34:20;;;;;;;49.67;21.05;;;;;;;6.14;100.00;93961.53;10347617;28;20041;-77
2021/12/29 09:39:20;;;;;;;44.55;21.50;;;;;;;6.00;100.00;93947.91;10347117;28;20328;-73
2021/12/29 09:44:21;;;;;;;37.00;19.33;;;;;;;6.00;100.00;93945.22;10346235;28;20057;-72
2021/12/29 09:49:22;;;;;;;45.25;22.35;;;;;;;6.11;100.00;93946.03;10346393;28;20030;-74
2021/12/29 09:54:22;;;;;;;53.03;22.83;;;;;;;6.14;100.00;93948.97;10364241;28;20478;-75
2021/12/29 09:59:23;;;;;;;44.92;22.55;;;;;;;6.20;100.00;93935.66;10386720;28;20025;-73
2021/12/29 10:04:25;;;;;;;46.95;19.90;;;;;;;6.37;100.00;93932.75;10386439;28;20021;-73
2021/12/29 10:09:25;;;;;;;44.17;20.60;;;;;;;6.53;100.00;93925.50;10385386;28;20090;-74
2021/12/29 10:14:33;;;;;;;38.45;19.05;;;;;;;6.74;100.00;93912.94;10386140;28;20098;-73
2021/12/29 10:19:36;;;;;;;38.80;18.48;;;;;;;6.92;100.00;93909.72;10385935;28;20033;-77
2021/12/29 10:24:37;;;;;;;35.15;17.48;;;;;;;6.78;100.00;93893.47;10370283;28;20034;-73
2021/12/29 10:29:40;;;;;;;35.92;18.00;;;;;;;6.77;100.00;93888.41;10404102;28;20529;-77
2021/12/29 10:34:55;;;;;;;33.40;16.45;;;;;;;6.82;100.00;93888.38;10361836;28;20495;-78
2021/12/29 10:39:58;;;;;;;32.65;15.52;;;;;;;6.98;100.00;93879.25;10345214;28;20045;-74
2021/12/29 10:45:00;;;;;;;26.30;13.50;;;;;;;6.90;100.00;93868.34;10366171;28;20058;-76
2021/12/29 10:50:07;;;;;;;31.77;15.20;;;;;;;7.08;100.00;93872.28;10344289;28;20037;-74
2021/12/29 10:55:34;;;;;;;26.45;15.18;;;;;;;7.30;100.00;93866.59;10362051;28;20033;-76
2021/12/29 11:00:37;;;;;;;30.90;15.27;;;;;;;7.51;100.00;93865.44;10344132;28;20109;-75
2021/12/29 11:05:41;;;;;;;31.15;17.70;;;;;;;7.58;100.00;93853.66;10344776;28;20025;-80
2021/12/29 11:10:44;;;;;;;32.75;15.40;;;;;;;7.68;100.00;93850.91;10354641;28;20104;-77
2021/12/29 11:15:53;;;;;;;31.63;15.73;;;;;;;7.93;100.00;93847.25;10344016;28;20033;-74
2021/12/29 11:20:58;;;;;;;36.17;15.80;;;;;;;8.01;100.00;93846.69;10360432;28;20033;-73
2021/12/29 11:26:00;;;;;;;37.38;17.80;;;;;;;8.06;100.00;93831.66;10360194;28;20041;-73
2021/12/29 11:31:04;;;;;;;26.58;14.18;;;;;;;8.14;100.00;93831.06;10359753;28;20030;-72
2021/12/29 11:36:05;;;;;;;32.08;15.43;;;;;;;8.14;100.00;93815.00;10343543;28;20036;-74
2021/12/29 11:41:06;;;;;;;25.02;12.68;;;;;;;8.23;100.00;93812.53;10359656;28;20030;-74
2021/12/29 11:46:06;;;;;;;30.02;16.30;;;;;;;8.14;100.00;93806.97;10359020;28;20591;-78
2021/12/29 11:51:08;;;;;;;37.45;18.40;;;;;;;8.27;100.00;93802.84;10360112;28;20044;-76
2021/12/29 11:56:15;;;;;;;37.47;18.98;;;;;;;8.31;100.00;93806.56;10383468;28;20044;-71
2021/12/29 12:01:18;;;;;;;39.55;19.55;;;;;;;8.35;100.00;93795.00;10367089;28;20124;-74
2021/12/29 12:06:34;;;;;;;42.28;21.92;;;;;;;8.29;100.00;93790.78;10402822;28;20534;-74
2021/12/29 12:11:36;;;;;;;42.10;21.33;;;;;;;8.34;100.00;93787.25;10394102;28;20590;-75
2021/12/29 12:16:49;;;;;;;47.70;22.10;;;;;;;8.27;100.00;93786.78;10403248;28;20083;-80
2021/12/29 12:22:21;;;;;;;45.40;23.33;;;;;;;8.12;100.00;93782.34;10417145;28;20029;-73
2021/12/29 12:27:25;;;;;;;41.72;20.08;;;;;;;8.19;100.00;93793.53;10391121;28;20558;-76
2021/12/29 12:32:26;;;;;;;48.22;23.58;;;;;;;8.26;100.00;93785.19;10392321;28;20036;-77
2021/12/29 12:37:31;;;;;;;47.45;21.40;;;;;;;8.34;100.00;93784.56;10392090;28;20033;-78
2021/12/29 12:42:33;;;;;;;46.13;22.52;;;;;;;8.35;100.00;93783.50;10390400;28;20156;-76
2021/12/29 12:47:34;;;;;;;43.47;23.60;;;;;;;8.29;100.00;93788.09;10391053;28;20054;-75
2021/12/29 12:52:43;;;;;;;41.60;21.40;;;;;;;8.39;100.00;93784.53;10390810;28;20022;-72
2021/12/29 12:57:45;;;;;;;46.17;23.65;;;;;;;8.41;100.00;93797.63;10374070;28;20051;-72
2021/12/29 13:03:01;;;;;;;39.22;21.27;;;;;;;8.39;100.00;93798.72;10372050;28;20021;-77
2021/12/29 13:08:11;;;;;;;42.13;21.50;;;;;;;8.48;100.00;93800.81;10374474;28;20018;-74
2021/12/29 13:13:15;;;;;;;46.30;19.83;;;;;;;8.48;100.00;93798.91;10386979;28;20029;-78
2021/12/29 13:18:18;;;;;;;37.55;18.85;;;;;;;8.39;100.00;93805.94;10387886;28;20030;-77
2021/12/29 13:23:19;;;;;;;31.10;17.85;;;;;;;8.33;100.00;93807.06;10387185;28;20536;-71
2021/12/29 13:28:21;;;;;;;34.50;18.00;;;;;;;8.23;100.00;93817.88;10387759;28;20086;-73
2021/12/29 13:33:35;;;;;;;35.63;18.17;;;;;;;8.27;100.00;93827.72;10388610;28;20053;-74
2021/12/29 13:38:37;;;;;;;41.80;19.25;;;;;;;8.29;100.00;93820.22;10388061;28;20128;-72
2021/12/29 13:43:47;;;;;;;35.13;18.15;;;;;;;8.28;100.00;93828.53;10387833;28;20049;-77
2021/12/29 13:48:52;;;;;;;35.75;17.95;;;;;;;8.30;100.00;93835.22;10387403;28;20473;-76
2021/12/29 13:53:54;;;;;;;36.20;19.08;;;;;;;8.31;100.00;93828.75;10386953;28;20450;-78
2021/12/29 13:59:18;;;;;;;39.15;18.40;;;;;;;8.30;100.00;93829.03;10386418;28;20412;-73
2021/12/29 14:04:22;;;;;;;37.22;18.42;;;;;;;8.27;100.00;93838.44;10386506;28;20144;-70
2021/12/29 14:09:23;;;;;;;42.67;19.85;;;;;;;8.15;100.00;93838.00;10369251;28;20032;-72
2021/12/29 14:14:24;;;;;;;42.42;20.40;;;;;;;8.11;100.00;93850.38;10364089;28;20076;-75
2021/12/29 14:19:28;;;;;;;44.33;20.80;;;;;;;8.06;100.00;93850.41;10360789;28;20014;-72
2021/12/29 14:24:29;;;;;;;46.70;21.67;;;;;;;8.05;100.00;93849.56;10360749;28;20038;-73
2021/12/29 14:29:33;;;;;;;54.70;23.52;;;;;;;8.10;100.00;93852.22;10343367;28;20034;-75
2021/12/29 14:34:40;;;;;;;49.38;23.05;;;;;;;8.00;100.00;93847.75;10361975;28;20116;-75
2021/12/29 14:39:42;;;;;;;56.15;25.08;;;;;;;8.00;100.00;93846.97;10360327;28;20109;-72
2021/12/29 14:45:07;;;;;;;61.88;29.10;;;;;;;7.89;100.00;93850.78;10343681;28;20049;-72
2021/12/29 14:50:12;;;;;;;61.80;28.52;;;;;;;7.58;100.00;93857.09;10360367;28;20030;-73
2021/12/29 14:55:17;;;;;;;67.53;31.85;;;;;;;7.50;100.00;93860.34;10359749;28;20030;-78
2021/12/29 15:00:21;;;;;;;69.72;30.92;;;;;;;7.44;100.00;93870.28;10383321;28;20022;-73
2021/12/29 15:05:26;;;;;;;73.90;34.83;;;;;;;7.26;100.00;93870.91;10383293;28;20084;-71
2021/12/29 15:10:41;;;;;;;81.75;34.65;;;;;;;7.35;100.00;93863.88;10361766;28;20122;-71
2021/12/29 15:15:47;;;;;;;81.78;34.15;;;;;;;7.31;100.00;93858.31;10342926;28;20136;-72
2021/12/29 15:20:58;;;;;;;84.15;33.65;;;;;;;7.29;100.00;93863.13;10342144;28;20120;-76
2021/12/29 15:25:59;;;;;;;80.15;35.78;;;;;;;7.25;100.00;93861.28;10359400;28;20507;-72
2021/12/29 15:31:04;;;;;;;92.07;36.13;;;;;;;7.32;100.00;93862.56;10342671;28;20539;-72
2021/12/29 15:36:09;;;;;;;71.28;33.53;;;;;;;7.36;100.00;93868.16;10325544;28;20064;-70
2021/12/29 15:41:11;;;;;;;67.13;29.17;;;;;;;7.34;100.00;93870.34;10341272;28;20025;-70
2021/12/29 15:46:12;;;;;;;58.20;27.42;;;;;;;7.36;100.00;93879.66;10357820;28;20057;-72
2021/12/29 15:51:12;;;;;;;50.95;26.42;;;;;;;7.39;100.00;93886.31;10358006;28;20420;-77
2021/12/29 15:56:13;;;;;;;59.85;26.80;;;;;;;7.45;100.00;93887.09;10341534;28;20049;-72
2021/12/29 16:01:15;;;;;;;47.65;24.33;;;;;;;7.53;100.00;93889.22;10357889;28;20026;-71
2021/12/29 16:06:16;;;;;;;50.92;25.27;;;;;;;7.66;100.00;93893.97;10377551;28;20112;-71
2021/12/29 16:11:17;;;;;;;57.03;28.10;;;;;;;7.62;100.00;93898.28;10382022;28;20507;-71
2021/12/29 16:16:17;;;;;;;57.83;29.05;;;;;;;7.61;100.00;93898.53;10342791;28;20038;-70
2021/12/29 16:21:18;;;;;;;58.22;28.05;;;;;;;7.60;100.00;93896.94;10366757;28;20035;-72
2021/12/29 16:26:18;;;;;;;68.95;32.25;;;;;;;7.63;100.00;93891.84;10363897;28;20029;-73
2021/12/29 16:31:19;;;;;;;78.82;34.03;;;;;;;7.72;100.00;93900.09;10357489;28;20030;-72
2021/12/29 16:36:21;;;;;;;78.95;36.10;;;;;;;7.72;100.00;93901.94;10401268;28;20102;-70
2021/12/29 16:41:22;;;;;;;79.47;35.85;;;;;;;7.70;100.00;93907.56;10376484;28;20055;-72
2021/12/29 16:46:22;;;;;;;87.80;40.88;;;;;;;7.59;100.00;93914.88;10337716;28;20092;-70
2021/12/29 16:51:23;;;;;;;107.85;43.97;;;;;;;7.62;100.00;93914.31;10370149;28;20025;-76
2021/12/29 16:56:26;;;;;;;102.82;43.92;;;;;;;7.52;100.00;93919.69;10345967;28;20029;-75
2021/12/29 17:01:27;;;;;;;104.20;44.60;;;;;;;7.49;100.00;93918.38;10345799;28;20022;-72
2021/12/29 17:06:27;;;;;;;102.50;45.58;;;;;;;7.48;100.00;93915.97;10345957;28;20703;-74
2021/12/29 17:11:28;;;;;;;91.32;38.72;;;;;;;7.35;100.00;93918.16;10346114;28;20418;-70
2021/12/29 17:16:28;;;;;;;92.75;38.20;;;;;;;7.32;100.00;93924.03;10363117;28;20037;-76
2021/12/29 17:21:29;;;;;;;79.25;34.10;;;;;;;7.24;100.00;93938.00;10363054;28;20488;-71
2021/12/29 17:26:30;;;;;;;74.28;33.45;;;;;;;7.24;100.00;93935.31;10386163;28;20408;-71
2021/12/29 17:31:35;;;;;;;75.45;32.80;;;;;;;7.29;100.00;93934.50;10386586;28;20128;-69
2021/12/29 17:36:36;;;;;;;69.15;31.20;;;;;;;7.15;100.00;93942.28;10387617;28;20036;-72
2021/12/29 17:41:37;;;;;;;68.15;29.75;;;;;;;7.17;100.00;93945.47;10385920;28;20029;-74
2021/12/29 17:46:38;;;;;;;62.72;30.55;;;;;;;7.12;100.00;93942.81;10385085;28;20431;-75
2021/12/29 17:51:39;;;;;;;64.07;29.23;;;;;;;7.07;100.00;93943.63;10370052;28;20526;-73
2021/12/29 17:56:40;;;;;;;56.22;24.38;;;;;;;6.88;100.00;93937.25;10362917;28;20036;-70
2021/12/29 18:01:41;;;;;;;61.05;25.90;;;;;;;6.38;100.00;93950.31;10360044;28;20052;-72
2021/12/29 18:06:41;;;;;;;52.30;24.70;;;;;;;6.18;100.00;93959.91;10386843;28;20090;-71
2021/12/29 18:11:42;;;;;;;45.58;21.15;;;;;;;6.07;100.00;93969.78;10402690;28;20561;-70
2021/12/29 18:16:43;;;;;;;38.25;18.10;;;;;;;5.95;100.00;93967.31;10384282;28;20034;-77
2021/12/29 18:21:44;;;;;;;33.13;14.98;;;;;;;6.05;100.00;93969.22;10401980;28;20852;-73
2021/12/29 18:26:47;;;;;;;24.83;11.90;;;;;;;6.02;100.00;93971.63;10382814;28;20398;-71
2021/12/29 18:31:47;;;;;;;26.80;12.55;;;;;;;6.19;100.00;93972.19;10408750;28;20510;-76
2021/12/29 18:36:49;;;;;;;24.52;11.30;;;;;;;6.12;100.00;93983.13;10367144;28;20141;-72
2021/12/29 18:41:49;;;;;;;17.33;8.60;;;;;;;5.97;100.00;93983.91;10342682;28;20403;-70
2021/12/29 18:46:50;;;;;;;17.42;8.77;;;;;;;5.86;100.00;93986.75;10359850;28;20062;-74
2021/12/29 18:51:53;;;;;;;19.08;9.15;;;;;;;5.65;100.00;93989.34;10361300;28;20025;-72
2021/12/29 18:56:54;;;;;;;19.42;9.70;;;;;;;5.68;100.00;94007.50;10342203;28;20036;-73
2021/12/29 19:01:55;;;;;;;20.50;9.40;;;;;;;5.59;100.00;94006.38;10365534;28;20029;-77
2021/12/29 19:06:56;;;;;;;20.38;10.77;;;;;;;5.49;100.00;94012.47;10384042;28;20033;-73
2021/12/29 19:12:00;;;;;;;19.20;10.63;;;;;;;5.63;100.00;94015.47;10382972;28;20116;-74
2021/12/29 19:17:01;;;;;;;24.27;12.32;;;;;;;5.53;100.00;94013.56;10382349;28;20036;-74
2021/12/29 19:22:04;;;;;;;20.90;10.80;;;;;;;5.38;100.00;94014.25;10471630;23;20058;-71
2021/12/29 19:27:06;;;;;;;21.42;10.95;;;;;;;5.37;100.00;94027.84;10365522;28;20535;-74
2021/12/29 19:32:07;;;;;;;25.05;11.15;;;;;;;5.64;100.00;94028.53;10375745;28;20037;-74
2021/12/29 19:37:11;;;;;;;19.42;10.38;;;;;;;5.74;100.00;94025.09;10357373;28;20411;-72
2021/12/29 19:42:19;;;;;;;18.45;10.57;;;;;;;5.23;100.00;94017.66;10357848;28;20043;-72
2021/12/29 19:47:23;;;;;;;20.83;10.47;;;;;;;5.26;100.00;94034.97;10340606;28;20415;-70
2021/12/29 19:52:28;;;;;;;26.48;10.85;;;;;;;5.33;100.00;94027.56;10357957;28;20487;-72
2021/12/29 19:57:30;;;;;;;25.52;10.45;;;;;;;5.28;100.00;94032.88;10358535;28;20032;-71
2021/12/29 20:02:33;;;;;;;23.80;9.05;;;;;;;5.11;100.00;94033.81;10358557;28;20040;-70
2021/12/29 20:07:33;;;;;;;22.63;9.68;;;;;;;5.20;100.00;94039.47;10380631;28;20029;-73
2021/12/29 20:12:34;;;;;;;17.85;8.00;;;;;;;5.06;100.00;94041.75;10380949;28;20469;-70
2021/12/29 20:17:35;;;;;;;23.40;8.77;;;;;;;5.03;100.00;94041.50;10381715;28;20105;-74
2021/12/29 20:22:36;;;;;;;21.15;9.25;;;;;;;5.00;100.00;94047.34;10324914;28;20044;-75
2021/12/29 20:27:38;;;;;;;19.98;8.80;;;;;;;4.86;100.00;94054.94;10359289;28;20432;-75
2021/12/29 20:32:39;;;;;;;17.55;8.52;;;;;;;4.61;100.00;94051.78;10365901;28;20036;-75
2021/12/29 20:37:41;;;;;;;21.17;10.35;;;;;;;4.43;100.00;94062.81;10374347;28;20067;-71
2021/12/29 20:42:42;;;;;;;16.63;9.57;;;;;;;4.36;100.00;94062.19;10373519;28;20034;-72
2021/12/29 20:47:43;;;;;;;17.70;8.48;;;;;;;4.38;100.00;94068.06;10364768;28;20025;-71
2021/12/29 20:52:44;;;;;;;24.13;10.38;;;;;;;4.35;100.00;94072.03;10347710;28;20037;-72
2021/12/29 20:57:44;;;;;;;18.98;9.85;;;;;;;4.16;100.00;94076.88;10365774;28;20048;-72
2021/12/29 21:02:45;;;;;;;23.90;9.80;;;;;;;4.18;100.00;94079.31;10348879;28;20032;-76
2021/12/29 21:07:46;;;;;;;20.80;9.32;;;;;;;4.35;100.00;94092.50;10364219;28;20030;-72
2021/12/29 21:12:47;;;;;;;17.75;9.75;;;;;;;4.40;100.00;94096.03;10347810;28;20037;-71
2021/12/29 21:17:47;;;;;;;18.80;9.93;;;;;;;4.11;100.00;94098.88;10372317;28;20443;-75
2021/12/29 21:22:50;;;;;;;16.88;8.65;;;;;;;4.11;100.00;94098.09;10388416;28;20026;-70
2021/12/29 21:27:51;;;;;;;17.25;9.50;;;;;;;4.23;100.00;94092.66;10388216;28;20029;-72
2021/12/29 21:32:52;;;;;;;20.02;9.75;;;;;;;4.32;100.00;94098.34;10388247;28;20029;-72
2021/12/29 21:37:52;;;;;;;12.43;7.47;;;;;;;4.17;100.00;94097.13;10402731;28;20042;-70
2021/12/29 21:42:54;;;;;;;14.10;8.15;;;;;;;4.07;100.00;94108.41;10363406;28;20026;-73
2021/12/29 21:47:54;;;;;;;12.70;7.95;;;;;;;4.18;100.00;94111.22;10362717;28;20057;-72
2021/12/29 21:52:55;;;;;;;12.15;7.93;;;;;;;4.40;100.00;94096.03;10363320;28;20129;-72
2021/12/29 21:57:56;;;;;;;12.88;7.43;;;;;;;4.55;100.00;94099.88;10346110;28;20033;-72
2021/12/29 22:02:57;;;;;;;17.23;7.63;;;;;;;4.34;100.00;94099.69;10362163;28;20500;-72
2021/12/29 22:07:58;;;;;;;13.10;8.18;;;;;;;4.21;100.00;94103.53;10361852;28;20034;-71
2021/12/29 22:13:00;;;;;;;12.43;7.35;;;;;;;4.02;100.00;94094.25;10361312;28;20487;-75
2021/12/29 22:18:02;;;;;;;14.05;7.57;;;;;;;4.05;100.00;94101.75;10362884;28;20057;-74
2021/12/29 22:23:03;;;;;;;12.38;7.07;;;;;;;3.80;100.00;94099.59;10362415;28;20480;-71
2021/12/29 22:28:05;;;;;;;13.63;8.32;;;;;;;3.58;100.00;94095.03;10344590;28;20474;-71
2021/12/29 22:33:07;;;;;;;12.82;7.45;;;;;;;3.59;100.00;94105.41;10362177;28;20506;-72
2021/12/29 22:38:08;;;;;;;14.77;7.80;;;;;;;3.62;100.00;94108.66;10362648;28;20046;-73
2021/12/29 22:43:11;;;;;;;14.93;7.00;;;;;;;3.55;100.00;94108.81;10360644;28;20037;-75
2021/12/29 22:48:13;;;;;;;12.60;7.97;;;;;;;3.64;100.00;94111.84;10358872;28;20026;-72
2021/12/29 22:53:15;;;;;;;12.48;8.27;;;;;;;3.64;100.00;94114.50;10361344;28;20030;-72
2021/12/29 22:58:16;;;;;;;12.48;7.53;;;;;;;3.70;100.00;94116.22;10361942;28;20105;-74